VOHS

Rajiv Gandhi International Airport

Hyderabad, India
TAF VOHS 160500Z 1606/1712 05010KT 6000 SCT015 BECMG 1612/1614 06005KT 5000 HZ SCT020 SCT100 TEMPO 1700/1703 00000KT 3000 HZ SCT010 SCT100 BECMG 1704/1706 06008KT 5000 HZ SCT015 SCT100 BECMG 1706/1708 09005KT 6000 SCT015 SC100
Issued Valid From Valid To
Dec-16 @ 05:00 UTC
(2 hours ago)
Dec-16 @ 06:00 UTC
(52 minutes ago)
Dec-17 @ 12:00 UTC
(-1 days ago)
Dec-16 @ 06:00 to Dec-16 @ 12:00
TAF VOHS 160500Z 1606/1712 05010KT 6000 SCT015
Wind Visibility Clouds
50° at 10 knots 6,003 meters
  • Scattered at 1,500' AGL
Becoming Dec-16 @ 12:00 to Dec-17 @ 04:00
BECMG 1612/1614 06005KT 5000 HZ SCT020 SCT100
Wind Visibility Clouds Conditions
60° at 5 knots 5,005 meters
  • Scattered at 2,000' AGL
  • Scattered at 10,000' AGL
  • Haze
Temporary Dec-17 @ 00:00 to Dec-17 @ 03:00
TEMPO 1700/1703 00000KT 3000 HZ SCT010 SCT100
Visibility Clouds Conditions
2,993 meters
  • Scattered at 1,000' AGL
  • Scattered at 10,000' AGL
  • Haze
Becoming Dec-17 @ 04:00 to Dec-17 @ 06:00
BECMG 1704/1706 06008KT 5000 HZ SCT015 SCT100
Wind Visibility Clouds Conditions
60° at 8 knots 5,005 meters
  • Scattered at 1,500' AGL
  • Scattered at 10,000' AGL
  • Haze
Becoming Dec-17 @ 06:00 to Dec-17 @ 12:00
BECMG 1706/1708 09005KT 6000 SCT015 SC100
Wind Visibility Clouds Conditions
90° at 5 knots 6,003 meters
  • Scattered at 1,500' AGL
  • Haze
TAF VOHS 160500Z 1606/1712 05010KT 6000 SCT015 BECMG 1612/1614 06005KT 5000 HZ SCT020 SCT100 TEMPO 1700/1703 00000KT 3000 HZ SCT010 SCT100 BECMG 1704/1706 06008KT 5000 HZ SCT015 SCT100 BECMG 1706/1708 09005KT 6000 SCT015 SC100
Issued Dec-16 @ 05:00 UTC
(2 hours ago)
Valid From Dec-16 @ 06:00 UTC
(52 minutes ago)
Valid To Dec-17 @ 12:00 UTC
(-1 days ago)
Dec-16 @ 06:00 - Dec-16 @ 12:00
Wind Visibility
50° at 10 knots 6,003 meters
Clouds
  • Scattered at 1,500' AGL
Becoming Dec-16 @ 12:00 - Dec-17 @ 04:00
Wind Visibility
60° at 5 knots 5,005 meters
Clouds
  • Scattered at 2,000' AGL
  • Scattered at 10,000' AGL
Conditions
  • Haze
Temporary Dec-17 @ 00:00 - Dec-17 @ 03:00
Clouds
  • Scattered at 1,000' AGL
  • Scattered at 10,000' AGL
Conditions
  • Haze
Becoming Dec-17 @ 04:00 - Dec-17 @ 06:00
Wind Visibility
60° at 8 knots 5,005 meters
Clouds
  • Scattered at 1,500' AGL
  • Scattered at 10,000' AGL
Conditions
  • Haze
Becoming Dec-17 @ 06:00 - Dec-17 @ 12:00
Wind Visibility
90° at 5 knots 6,003 meters
Clouds
  • Scattered at 1,500' AGL
Conditions
  • Haze